CheckWX is a tool to help pilots better visualize weather data.  It is not intended as a substitute for an official pre-flight weather briefing.

01:55:17 UTC

FACT METAR
Cape Town International Airport
Cape Town, South Africa
Current

55 mins ago

FACT 190100Z 22006KT 9999 FEW040 13/09 Q1026 NOSIG
Observed
Aug-19 @ 01:00 UTC
Wind
  • 220° at 6 KTS
Visibility
10,000+ meters
Flight Rules
VFR
Cloud Levels
  • Few at 4,000' AGL
Temperature
13°C / 55°F
Dewpoint
C / 48°F
Humidity
77%
Altimeter
30.3" Hg
Pressure
1025.92 hPa
Previous

2 hours ago

FACT 190000Z 22008KT 9999 SCT049 14/11 Q1026 NOSIG
Observed
Aug-19 @ 00:00 UTC
Wind
  • 220° at 8 KTS
Visibility
10,000+ meters
Flight Rules
VFR
Cloud Levels
  • Scattered at 4,900' AGL
Temperature
14°C / 57°F
Dewpoint
11°C / 52°F
Humidity
82%
Altimeter
30.3" Hg
Pressure
1025.92 hPa
Previous

3 hours ago

FACT 182300Z VRB03KT 9999 BKN018 13/12 Q1025 BECMG BKN010
Observed
Aug-18 @ 23:00 UTC
Wind
  • Variable at 3 KTS
Visibility
10,000+ meters
Flight Rules
MVFR
Cloud Levels
  • Broken at 1,800' AGL
Temperature
13°C / 55°F
Dewpoint
12°C / 54°F
Humidity
94%
Altimeter
30.27" Hg
Pressure
1024.92 hPa